Time;durP1;ratioP1;P1;durP2;ratioP2;P2;SDS_P1;SDS_P2;PMS_P1;PMS_P2;Temp;Humidity;BMP_temperature;BMP_pressure;BME280_temperature;BME280_humidity;BME280_pressure;Samples;Min_cycle;Max_cycle;Signal;HPM_P1;HPM_P2
2021/07/01 00:04:59;;;;;;;0.40;0.20;;;;;;;16.90;100.00;100014.28;5062094;28;20468;-53
2021/07/01 00:07:26;;;;;;;0.40;0.20;;;;;;;16.82;100.00;100009.38;5066976;28;20462;-53
2021/07/01 00:09:53;;;;;;;0.40;0.20;;;;;;;17.20;100.00;100012.47;5070340;28;20457;-53
2021/07/01 00:12:19;;;;;;;0.40;0.20;;;;;;;17.03;100.00;100017.97;5067582;28;20815;-53
2021/07/01 00:14:46;;;;;;;0.40;0.20;;;;;;;16.77;100.00;100016.84;5060525;28;20442;-53
2021/07/01 00:17:13;;;;;;;0.40;0.20;;;;;;;16.83;100.00;100011.09;5071661;28;20457;-53
2021/07/01 00:19:39;;;;;;;0.40;0.20;;;;;;;16.93;100.00;100023.03;5060844;28;20512;-54
2021/07/01 00:22:06;;;;;;;0.40;0.20;;;;;;;17.09;100.00;100028.34;5056580;28;20486;-53
2021/07/01 00:24:32;;;;;;;0.40;0.20;;;;;;;17.13;100.00;100028.09;5071763;28;20515;-54
2021/07/01 00:26:59;;;;;;;0.40;0.20;;;;;;;16.99;100.00;100025.34;5071392;28;20492;-53
2021/07/01 00:29:26;;;;;;;0.43;0.30;;;;;;;16.87;100.00;100024.25;5062281;28;20892;-54
2021/07/01 00:31:52;;;;;;;0.40;0.20;;;;;;;16.90;100.00;100023.22;5067162;28;20472;-53
2021/07/01 00:34:19;;;;;;;0.40;0.20;;;;;;;17.01;100.00;100022.59;5067997;28;20481;-54
2021/07/01 00:36:46;;;;;;;0.40;0.20;;;;;;;16.96;100.00;100027.34;5071678;28;20446;-53
2021/07/01 00:39:12;;;;;;;0.40;0.20;;;;;;;16.94;100.00;100027.44;5071474;28;20915;-54
2021/07/01 00:41:40;;;;;;;0.40;0.20;;;;;;;17.21;100.00;100026.75;5071186;28;20469;-54
2021/07/01 00:44:07;;;;;;;0.40;0.20;;;;;;;17.17;100.00;100012.66;5069733;28;20466;-56
2021/07/01 00:46:33;;;;;;;0.40;0.20;;;;;;;17.05;100.00;100022.31;5068723;28;20489;-53
2021/07/01 00:49:00;;;;;;;0.40;0.20;;;;;;;16.87;100.00;100021.59;5071539;28;20450;-53
2021/07/01 00:51:27;;;;;;;0.40;0.20;;;;;;;16.97;100.00;100027.25;5070949;28;20568;-53
2021/07/01 00:53:54;;;;;;;0.40;0.20;;;;;;;16.95;100.00;100030.97;5071436;28;20446;-53
2021/07/01 00:56:21;;;;;;;0.40;0.30;;;;;;;16.88;100.00;100017.94;5071552;28;20442;-53
2021/07/01 00:58:52;;;;;;;0.40;0.20;;;;;;;16.95;100.00;100023.78;5071418;28;20476;-53
2021/07/01 01:01:20;;;;;;;0.40;0.20;;;;;;;16.74;100.00;100023.25;5071041;28;20466;-52
2021/07/01 01:03:47;;;;;;;0.40;0.20;;;;;;;16.72;100.00;100022.47;5062422;28;20516;-52
2021/07/01 01:06:14;;;;;;;0.40;0.20;;;;;;;16.75;100.00;100024.13;5064679;28;20552;-53
2021/07/01 01:08:41;;;;;;;0.70;0.70;;;;;;;16.79;100.00;100021.16;5063040;28;20454;-53
2021/07/01 01:11:07;;;;;;;0.40;0.20;;;;;;;16.88;100.00;100026.00;5070997;28;20814;-53
2021/07/01 01:13:34;;;;;;;0.40;0.20;;;;;;;16.79;100.00;100029.22;5071224;28;20449;-53
2021/07/01 01:16:03;;;;;;;0.40;0.20;;;;;;;16.84;100.00;100031.59;5057830;28;20453;-53
2021/07/01 01:18:30;;;;;;;0.40;0.20;;;;;;;16.72;100.00;100025.16;5071563;28;20472;-52
2021/07/01 01:20:58;;;;;;;0.40;0.20;;;;;;;17.09;100.00;100020.28;5071193;28;20504;-53
2021/07/01 01:23:25;;;;;;;0.40;0.20;;;;;;;16.89;100.00;100021.50;5071312;28;20563;-53
2021/07/01 01:25:59;;;;;;;0.40;0.20;;;;;;;16.94;100.00;100024.75;5062444;28;20498;-53
2021/07/01 01:28:26;;;;;;;0.40;0.20;;;;;;;16.85;100.00;100019.91;5064804;28;20481;-53
2021/07/01 01:30:54;;;;;;;0.40;0.20;;;;;;;16.72;100.00;100021.59;5070769;28;20575;-53
2021/07/01 01:33:21;;;;;;;0.40;0.20;;;;;;;16.74;100.00;100028.63;5065885;28;20455;-53
2021/07/01 01:35:47;;;;;;;0.40;0.20;;;;;;;16.92;100.00;100026.66;5059241;28;20441;-52
2021/07/01 01:38:15;;;;;;;0.40;0.20;;;;;;;17.02;100.00;100029.69;5070814;28;21024;-52
2021/07/01 01:40:44;;;;;;;0.40;0.20;;;;;;;16.92;100.00;100028.50;5073334;28;20474;-53
2021/07/01 01:43:14;;;;;;;0.40;0.20;;;;;;;16.76;100.00;100032.06;5073497;28;20445;-53
2021/07/01 01:45:42;;;;;;;0.40;0.20;;;;;;;16.90;100.00;100025.03;5066437;28;20490;-53
2021/07/01 01:48:09;;;;;;;0.40;0.20;;;;;;;16.95;100.00;100029.16;5070456;28;20450;-53
2021/07/01 01:50:36;;;;;;;0.40;0.20;;;;;;;16.92;100.00;100037.41;5074560;28;20473;-53
2021/07/01 01:53:04;;;;;;;0.40;0.20;;;;;;;17.03;100.00;100037.66;5074473;28;20861;-53
2021/07/01 01:55:30;;;;;;;0.60;0.60;;;;;;;17.31;100.00;100036.84;5074737;28;20555;-53
2021/07/01 01:57:58;;;;;;;0.40;0.20;;;;;;;16.92;100.00;100045.47;5074390;28;20917;-53
2021/07/01 02:00:26;;;;;;;0.40;0.20;;;;;;;16.96;100.00;100038.09;5074589;28;20472;-53
2021/07/01 02:02:53;;;;;;;0.40;0.20;;;;;;;17.16;100.00;100048.53;5073251;28;20485;-54
2021/07/01 02:05:20;;;;;;;0.40;0.30;;;;;;;17.27;100.00;100046.06;5064331;28;20837;-53
2021/07/01 02:07:47;;;;;;;0.40;0.20;;;;;;;17.12;100.00;100045.13;5074386;28;20483;-52
2021/07/01 02:10:17;;;;;;;0.40;0.20;;;;;;;16.84;100.00;100037.84;5074285;28;20520;-53
2021/07/01 02:12:44;;;;;;;0.40;0.20;;;;;;;16.97;100.00;100039.81;5073688;28;20502;-54
2021/07/01 02:15:13;;;;;;;0.40;0.20;;;;;;;16.92;100.00;100039.22;5074055;28;20453;-54
2021/07/01 02:17:40;;;;;;;0.40;0.20;;;;;;;16.93;100.00;100028.41;5074013;28;20447;-53
2021/07/01 02:20:10;;;;;;;0.40;0.20;;;;;;;17.02;100.00;100027.00;5072220;28;20491;-52
2021/07/01 02:22:37;;;;;;;0.40;0.20;;;;;;;17.11;100.00;100032.66;5060920;28;20522;-52
2021/07/01 02:25:05;;;;;;;0.40;0.20;;;;;;;17.16;100.00;100019.84;5073682;28;20450;-52
2021/07/01 02:27:33;;;;;;;0.40;0.20;;;;;;;17.33;100.00;100021.50;5073564;28;20482;-52
2021/07/01 02:30:00;;;;;;;0.40;0.20;;;;;;;16.84;100.00;100027.09;5073679;28;20507;-52
2021/07/01 02:32:27;;;;;;;0.40;0.20;;;;;;;16.78;100.00;100030.16;5073802;28;20520;-54
2021/07/01 02:34:56;;;;;;;0.40;0.20;;;;;;;17.10;100.00;100038.13;5069622;28;20454;-53
2021/07/01 02:37:23;;;;;;;0.40;0.20;;;;;;;17.01;100.00;100034.19;5073721;28;20495;-53
2021/07/01 02:39:50;;;;;;;0.40;0.20;;;;;;;16.91;100.00;100043.75;5067157;28;20511;-52
2021/07/01 02:42:17;;;;;;;0.40;0.20;;;;;;;17.04;100.00;100050.13;5073501;28;20428;-52
2021/07/01 02:44:43;;;;;;;0.40;0.20;;;;;;;16.92;100.00;100050.84;5073129;28;20429;-53
2021/07/01 02:47:10;;;;;;;0.40;0.20;;;;;;;16.95;100.00;100052.47;5072208;28;20547;-52
2021/07/01 02:49:37;;;;;;;0.40;0.20;;;;;;;17.06;100.00;100050.03;5073226;28;20643;-52
2021/07/01 02:52:04;;;;;;;0.40;0.20;;;;;;;16.81;100.00;100048.78;5072870;28;20846;-53
2021/07/01 02:54:31;;;;;;;0.40;0.20;;;;;;;16.81;100.00;100048.78;5060086;28;20462;-53
2021/07/01 02:56:58;;;;;;;0.40;0.20;;;;;;;16.94;100.00;100042.69;5061843;28;20453;-53
2021/07/01 02:59:24;;;;;;;0.40;0.20;;;;;;;16.86;100.00;100043.16;5059981;28;20558;-52
2021/07/01 03:01:51;;;;;;;0.40;0.20;;;;;;;17.04;100.00;100049.25;5063126;28;20475;-53
2021/07/01 03:04:18;;;;;;;0.40;0.20;;;;;;;17.17;100.00;100050.25;5069508;28;20895;-53
2021/07/01 03:06:45;;;;;;;0.40;0.20;;;;;;;16.98;100.00;100049.59;5072814;28;20482;-52
2021/07/01 03:09:12;;;;;;;0.40;0.20;;;;;;;16.76;100.00;100053.56;5067456;28;20470;-53
2021/07/01 03:11:38;;;;;;;0.40;0.20;;;;;;;16.69;100.00;100054.84;5056166;28;20532;-53
2021/07/01 03:14:06;;;;;;;0.40;0.20;;;;;;;16.83;100.00;100052.22;5069182;28;20495;-53
2021/07/01 03:16:34;;;;;;;0.40;0.20;;;;;;;17.03;100.00;100055.59;5062808;28;20814;-53
2021/07/01 03:19:01;;;;;;;0.40;0.20;;;;;;;16.66;100.00;100046.94;5069633;28;20461;-53
2021/07/01 03:21:28;;;;;;;0.40;0.20;;;;;;;16.96;100.00;100051.50;5065427;28;20479;-53
2021/07/01 03:23:55;;;;;;;0.40;0.20;;;;;;;16.89;100.00;100056.41;5066638;28;20451;-53
2021/07/01 03:26:22;;;;;;;0.40;0.20;;;;;;;16.70;100.00;100050.34;5060648;28;20485;-53
2021/07/01 03:28:49;;;;;;;0.40;0.20;;;;;;;16.94;100.00;100056.09;5069085;28;20461;-53
2021/07/01 03:31:15;;;;;;;0.43;0.40;;;;;;;16.95;100.00;100053.34;5052900;28;20466;-52
2021/07/01 03:33:42;;;;;;;0.40;0.20;;;;;;;16.93;100.00;100047.19;5060258;28;20942;-53
2021/07/01 03:36:09;;;;;;;0.40;0.20;;;;;;;16.94;100.00;100048.06;5060611;28;20458;-54
2021/07/01 03:38:36;;;;;;;0.40;0.20;;;;;;;16.85;100.00;100044.94;5068659;28;20946;-53
2021/07/01 03:41:04;;;;;;;0.40;0.20;;;;;;;16.85;100.00;100042.25;5072432;28;20462;-53
2021/07/01 03:43:33;;;;;;;0.40;0.20;;;;;;;16.85;100.00;100041.38;5068887;28;20491;-53
2021/07/01 03:45:59;;;;;;;0.40;0.20;;;;;;;16.96;100.00;100048.81;5072723;28;20516;-53
2021/07/01 03:48:26;;;;;;;0.40;0.20;;;;;;;16.47;100.00;100052.50;5072778;28;20606;-52
2021/07/01 03:50:53;;;;;;;0.40;0.30;;;;;;;16.72;100.00;100043.06;5072738;28;20507;-53
2021/07/01 03:53:20;;;;;;;0.40;0.20;;;;;;;16.90;100.00;100046.50;5070644;28;20535;-53
2021/07/01 03:55:46;;;;;;;0.40;0.20;;;;;;;17.16;100.00;100045.84;5064233;28;20935;-53
2021/07/01 03:58:13;;;;;;;0.40;0.20;;;;;;;17.00;100.00;100055.78;5072305;28;21012;-53
2021/07/01 04:00:40;;;;;;;0.40;0.20;;;;;;;16.69;100.00;100056.66;5072651;28;20523;-53
2021/07/01 04:03:06;;;;;;;0.40;0.20;;;;;;;16.53;100.00;100062.00;5068465;28;20447;-53
2021/07/01 04:05:33;;;;;;;0.40;0.20;;;;;;;16.51;100.00;100061.25;5057320;28;20520;-52
2021/07/01 04:07:59;;;;;;;0.40;0.20;;;;;;;16.64;100.00;100069.47;5071864;28;20482;-53
2021/07/01 04:10:26;;;;;;;0.40;0.20;;;;;;;16.68;100.00;100063.84;5072085;28;20556;-53
2021/07/01 04:12:53;;;;;;;0.40;0.20;;;;;;;16.61;100.00;100059.78;5072209;28;21019;-53
2021/07/01 04:15:19;;;;;;;0.40;0.20;;;;;;;16.89;100.00;100064.44;5066414;28;20458;-53
2021/07/01 04:17:46;;;;;;;0.40;0.20;;;;;;;16.89;100.00;100056.41;5052548;28;20438;-53
2021/07/01 04:20:13;;;;;;;0.40;0.20;;;;;;;17.05;100.00;100064.41;5051887;28;20477;-53
2021/07/01 04:22:40;;;;;;;0.40;0.20;;;;;;;16.88;100.00;100062.72;5052174;28;20467;-53
2021/07/01 04:25:06;;;;;;;0.40;0.20;;;;;;;16.70;100.00;100066.44;5051621;28;20576;-53
2021/07/01 04:27:33;;;;;;;0.40;0.20;;;;;;;16.62;100.00;100063.31;5052377;28;20478;-53
2021/07/01 04:30:01;;;;;;;0.40;0.20;;;;;;;16.80;100.00;100064.97;5050476;28;20454;-53
2021/07/01 04:32:27;;;;;;;0.40;0.20;;;;;;;16.59;100.00;100070.59;5051227;28;20449;-53
2021/07/01 04:34:54;;;;;;;0.40;0.20;;;;;;;16.57;100.00;100068.94;5051141;28;20954;-53
2021/07/01 04:37:20;;;;;;;0.40;0.20;;;;;;;16.67;100.00;100064.81;5051282;28;20443;-53
2021/07/01 04:39:47;;;;;;;0.40;0.20;;;;;;;16.90;100.00;100066.16;5050501;28;21027;-53
2021/07/01 04:42:18;;;;;;;0.40;0.20;;;;;;;16.78;100.00;100058.81;5051305;28;20439;-53
2021/07/01 04:44:45;;;;;;;0.40;0.20;;;;;;;16.79;100.00;100064.09;5051209;28;20510;-53
2021/07/01 04:47:12;;;;;;;0.40;0.20;;;;;;;17.25;100.00;100061.38;5051666;28;20495;-53
2021/07/01 04:49:38;;;;;;;0.40;0.20;;;;;;;16.87;100.00;100063.69;5051420;28;20447;-53
2021/07/01 04:52:05;;;;;;;0.40;0.20;;;;;;;16.96;100.00;100064.94;5051014;28;20847;-54
2021/07/01 04:54:32;;;;;;;0.40;0.20;;;;;;;16.95;100.00;100063.22;5051041;28;20981;-53
2021/07/01 04:56:58;;;;;;;0.40;0.20;;;;;;;16.87;100.00;100061.84;5052185;28;20458;-53
2021/07/01 04:59:25;;;;;;;0.40;0.20;;;;;;;16.91;100.00;100061.66;5066940;28;20445;-53
2021/07/01 05:01:55;;;;;;;0.40;0.20;;;;;;;16.82;100.00;100063.91;5068417;28;20895;-53
2021/07/01 05:04:21;;;;;;;0.40;0.20;;;;;;;16.86;99.41;100064.63;5059699;28;20549;-53
2021/07/01 05:06:48;;;;;;;0.40;0.20;;;;;;;17.03;99.92;100064.50;5071732;28;21048;-53
2021/07/01 05:09:15;;;;;;;0.40;0.20;;;;;;;16.95;100.00;100071.25;5071642;28;20503;-53
2021/07/01 05:11:41;;;;;;;0.40;0.20;;;;;;;16.81;99.63;100070.25;5055569;28;20478;-53
2021/07/01 05:14:08;;;;;;;0.40;0.20;;;;;;;17.29;98.23;100081.75;5069920;28;20434;-53
2021/07/01 05:16:35;;;;;;;0.40;0.20;;;;;;;17.02;99.70;100080.72;5065636;28;20451;-53
2021/07/01 05:19:02;;;;;;;0.40;0.20;;;;;;;16.95;100.00;100084.69;5072090;28;20460;-53
2021/07/01 05:21:29;;;;;;;0.40;0.20;;;;;;;16.82;100.00;100080.03;5075795;28;20470;-53
2021/07/01 05:23:56;;;;;;;0.40;0.20;;;;;;;16.72;100.00;100076.16;5075469;28;20454;-53
2021/07/01 05:26:23;;;;;;;0.40;0.30;;;;;;;16.84;100.00;100088.00;5074071;28;20450;-53
2021/07/01 05:28:50;;;;;;;0.40;0.20;;;;;;;16.55;100.00;100085.13;5075689;28;21124;-53
2021/07/01 05:31:37;;;;;;;0.40;0.20;;;;;;;16.77;100.00;100094.69;5073666;28;20484;-53
2021/07/01 05:34:04;;;;;;;1.10;0.97;;;;;;;16.56;100.00;100094.03;5071364;28;20428;-53
2021/07/01 05:36:30;;;;;;;0.40;0.30;;;;;;;16.64;100.00;100094.47;5075628;28;20442;-53
2021/07/01 05:38:57;;;;;;;0.90;0.53;;;;;;;16.59;100.00;100093.88;5075447;28;20494;-53
2021/07/01 05:41:23;;;;;;;0.40;0.20;;;;;;;16.78;100.00;100094.59;5075045;28;20462;-53
2021/07/01 05:43:50;;;;;;;0.50;0.40;;;;;;;16.71;100.00;100085.13;5075198;28;20871;-53
2021/07/01 05:46:17;;;;;;;0.40;0.20;;;;;;;16.73;100.00;100093.13;5074794;28;20884;-53
2021/07/01 05:48:43;;;;;;;0.40;0.20;;;;;;;16.89;100.00;100093.97;5075395;28;20474;-53
2021/07/01 05:51:13;;;;;;;0.40;0.20;;;;;;;16.54;100.00;100094.13;5064722;28;20878;-53
2021/07/01 05:56:06;;;;;;;0.40;0.20;;;;;;;16.74;100.00;100095.72;5074815;28;20450;-53
2021/07/01 05:58:33;;;;;;;0.50;0.40;;;;;;;17.02;100.00;100095.00;5067266;28;20439;-53
2021/07/01 06:01:00;;;;;;;0.40;0.20;;;;;;;16.80;100.00;100097.19;5069546;28;20999;-53
2021/07/01 06:03:26;;;;;;;1.63;1.53;;;;;;;16.79;100.00;100093.63;5069219;28;20447;-53
2021/07/01 06:06:00;;;;;;;0.40;0.20;;;;;;;16.76;100.00;100098.31;5070138;28;20458;-53
2021/07/01 06:08:31;;;;;;;0.67;0.60;;;;;;;16.58;100.00;100102.84;5074743;28;20521;-53
2021/07/01 06:11:02;;;;;;;0.40;0.20;;;;;;;16.72;100.00;100100.31;5074932;28;20986;-53
2021/07/01 06:13:29;;;;;;;0.40;0.20;;;;;;;16.83;100.00;100107.75;5075303;28;20922;-53
2021/07/01 06:15:57;;;;;;;0.40;0.20;;;;;;;16.81;100.00;100105.16;5070763;28;20500;-53
2021/07/01 06:18:25;;;;;;;0.40;0.20;;;;;;;16.77;100.00;100106.28;5066378;28;20449;-53
2021/07/01 06:20:52;;;;;;;0.40;0.20;;;;;;;16.80;100.00;100110.59;5072387;28;20524;-53
2021/07/01 06:23:19;;;;;;;0.40;0.20;;;;;;;16.84;100.00;100117.53;5066478;28;20446;-53
2021/07/01 06:25:47;;;;;;;2.03;0.67;;;;;;;16.91;100.00;100113.53;5073808;28;20503;-53
2021/07/01 06:28:14;;;;;;;0.40;0.20;;;;;;;16.97;100.00;100118.56;5075413;28;20490;-53
2021/07/01 06:30:43;;;;;;;0.40;0.20;;;;;;;16.87;100.00;100114.69;5074363;28;20523;-53
2021/07/01 06:33:11;;;;;;;0.40;0.20;;;;;;;17.05;98.80;100118.13;5071050;28;20446;-55
2021/07/01 06:35:39;;;;;;;0.77;0.77;;;;;;;17.52;97.95;100120.69;5060543;28;20511;-53
2021/07/01 06:38:12;;;;;;;0.40;0.30;;;;;;;17.05;98.36;100127.03;5074397;28;20420;-55
2021/07/01 06:40:39;;;;;;;0.40;0.20;;;;;;;16.99;99.14;100127.38;5074259;28;20469;-53
2021/07/01 06:43:06;;;;;;;0.40;0.20;;;;;;;17.13;99.31;100121.22;5074026;28;20449;-53
2021/07/01 06:45:34;;;;;;;0.40;0.20;;;;;;;17.24;99.31;100125.97;5066567;28;20444;-53
2021/07/01 06:48:03;;;;;;;0.40;0.20;;;;;;;16.97;98.43;100123.06;5068704;28;20525;-53
2021/07/01 06:50:31;;;;;;;0.40;0.20;;;;;;;17.02;99.58;100123.69;5073911;28;20520;-53
2021/07/01 06:52:58;;;;;;;0.40;0.20;;;;;;;17.21;97.82;100126.16;5073831;28;20479;-53
2021/07/01 06:55:26;;;;;;;0.40;0.20;;;;;;;17.20;97.31;100135.16;5074086;28;20503;-53
2021/07/01 06:57:54;;;;;;;0.40;0.20;;;;;;;17.03;98.57;100136.16;5073630;28;20446;-53
2021/07/01 07:00:22;;;;;;;0.40;0.20;;;;;;;16.94;99.17;100134.84;5073624;28;20524;-53
2021/07/01 07:02:51;;;;;;;0.40;0.20;;;;;;;17.17;98.48;100133.53;5073149;28;20564;-53
2021/07/01 07:05:18;;;;;;;0.40;0.20;;;;;;;17.19;96.67;100137.00;5053858;28;20505;-53
2021/07/01 07:07:47;;;;;;;0.40;0.20;;;;;;;17.16;97.25;100138.03;5070069;28;20512;-53
2021/07/01 07:10:19;;;;;;;0.40;0.20;;;;;;;17.53;97.37;100133.16;5073970;28;20466;-53
2021/07/01 07:12:48;;;;;;;0.40;0.30;;;;;;;17.62;96.54;100140.69;5073700;28;20442;-53
2021/07/01 07:15:23;;;;;;;0.40;0.20;;;;;;;17.59;95.96;100137.31;5074030;28;20457;-53
2021/07/01 07:17:51;;;;;;;0.40;0.20;;;;;;;17.67;96.19;100137.72;5060003;28;20437;-53
2021/07/01 07:20:23;;;;;;;0.40;0.20;;;;;;;17.82;96.42;100141.31;5072079;28;20474;-53
2021/07/01 07:22:51;;;;;;;0.40;0.20;;;;;;;17.69;95.71;100141.22;5063712;28;20550;-53
2021/07/01 07:25:17;;;;;;;0.40;0.20;;;;;;;17.82;95.12;100149.38;5073428;28;20486;-53
2021/07/01 07:28:05;;;;;;;0.40;0.20;;;;;;;18.16;92.45;100153.56;5073429;28;20497;-53
2021/07/01 07:30:32;;;;;;;0.40;0.20;;;;;;;18.52;90.86;100150.41;5073238;28;20470;-53
2021/07/01 07:33:06;;;;;;;0.40;0.20;;;;;;;18.48;92.14;100152.41;5071103;28;20845;-53
2021/07/01 07:35:33;;;;;;;0.40;0.20;;;;;;;18.36;92.33;100161.25;5072584;28;20482;-53
2021/07/01 07:38:00;;;;;;;0.40;0.20;;;;;;;18.67;90.82;100159.38;5072054;28;20472;-53
2021/07/01 07:40:27;;;;;;;0.53;0.53;;;;;;;18.66;91.68;100155.81;5073071;28;20444;-54
2021/07/01 07:42:54;;;;;;;0.40;0.20;;;;;;;18.47;92.25;100158.75;5072810;28;20943;-53
2021/07/01 07:45:21;;;;;;;0.40;0.20;;;;;;;18.66;91.95;100154.94;5072852;28;20527;-54
2021/07/01 07:47:48;;;;;;;0.40;0.20;;;;;;;18.47;92.43;100150.69;5072728;28;20994;-53
2021/07/01 07:50:16;;;;;;;0.40;0.20;;;;;;;19.00;89.84;100148.22;5059474;28;20531;-54
2021/07/01 07:52:50;;;;;;;0.40;0.20;;;;;;;18.69;89.71;100155.59;5072640;28;20963;-54
2021/07/01 07:55:20;;;;;;;0.40;0.20;;;;;;;18.54;89.23;100157.41;5072718;28;20460;-54
2021/07/01 07:57:53;;;;;;;0.40;0.20;;;;;;;18.96;89.57;100158.34;5072314;28;20416;-54
2021/07/01 08:00:20;;;;;;;0.40;0.20;;;;;;;18.86;90.12;100149.13;5072783;28;20535;-54
2021/07/01 08:02:52;;;;;;;0.40;0.20;;;;;;;18.35;91.23;100152.31;5072235;28;20424;-53
2021/07/01 08:05:21;;;;;;;0.40;0.20;;;;;;;18.73;90.98;100153.56;5063108;28;20421;-54
2021/07/01 08:07:49;;;;;;;0.40;0.20;;;;;;;18.60;90.88;100146.25;5072772;28;20493;-54
2021/07/01 08:10:20;;;;;;;0.40;0.30;;;;;;;18.41;90.36;100148.41;5072686;28;20527;-54
2021/07/01 08:12:51;;;;;;;0.40;0.20;;;;;;;18.14;92.54;100156.38;5072692;28;20492;-57
2021/07/01 08:15:20;;;;;;;0.40;0.20;;;;;;;18.15;91.22;100158.09;5072654;28;20421;-54
2021/07/01 08:17:49;;;;;;;0.40;0.20;;;;;;;18.48;91.40;100154.25;5059000;28;20819;-54
2021/07/01 08:20:18;;;;;;;0.40;0.20;;;;;;;18.07;90.23;100160.38;5072100;28;20471;-54
2021/07/01 08:22:46;;;;;;;0.40;0.20;;;;;;;17.95;91.83;100153.06;5061870;28;20503;-54
2021/07/01 08:25:14;;;;;;;0.40;0.20;;;;;;;18.43;89.65;100153.69;5072111;28;20445;-53
2021/07/01 08:27:42;;;;;;;0.40;0.20;;;;;;;18.50;89.94;100155.00;5071942;28;20988;-54
2021/07/01 08:30:10;;;;;;;0.40;0.20;;;;;;;18.11;92.12;100153.88;5071944;28;20425;-54
2021/07/01 08:32:38;;;;;;;0.40;0.20;;;;;;;17.88;91.66;100151.72;5071906;28;20461;-54
2021/07/01 08:35:07;;;;;;;0.40;0.20;;;;;;;18.09;92.30;100152.22;5067681;28;20537;-54
2021/07/01 08:37:34;;;;;;;0.40;0.20;;;;;;;18.14;91.46;100152.81;5072654;28;20466;-53
2021/07/01 08:40:04;;;;;;;0.40;0.20;;;;;;;18.04;92.29;100157.88;5073017;28;20939;-54
2021/07/01 08:42:34;;;;;;;0.40;0.20;;;;;;;18.23;91.74;100154.94;5073261;28;20442;-54
2021/07/01 08:45:08;;;;;;;0.40;0.20;;;;;;;17.99;90.40;100147.41;5070875;28;20457;-54
2021/07/01 08:47:42;;;;;;;0.40;0.20;;;;;;;17.94;91.63;100148.66;5071898;28;20999;-53
2021/07/01 08:50:16;;;;;;;0.40;0.20;;;;;;;17.96;91.03;100153.00;5071383;28;20801;-53
2021/07/01 08:53:01;;;;;;;0.40;0.20;;;;;;;18.08;92.56;100158.56;5072100;28;20533;-54
2021/07/01 08:55:28;;;;;;;0.40;0.20;;;;;;;18.03;91.18;100157.03;5072027;28;20449;-54
2021/07/01 08:57:57;;;;;;;0.40;0.20;;;;;;;18.11;90.22;100161.94;5070691;28;20471;-54
2021/07/01 09:00:26;;;;;;;0.40;0.20;;;;;;;18.20;91.43;100163.19;5071860;28;20508;-54
2021/07/01 09:03:10;;;;;;;0.40;0.20;;;;;;;18.14;90.68;100166.25;5070706;28;20464;-53
2021/07/01 09:05:38;;;;;;;0.40;0.20;;;;;;;18.35;91.21;100172.97;5055158;28;20485;-53
2021/07/01 09:08:10;;;;;;;0.40;0.20;;;;;;;18.77;88.83;100169.44;5071013;28;20533;-54
2021/07/01 09:10:37;;;;;;;0.40;0.20;;;;;;;18.54;88.80;100180.78;5071920;28;20799;-54
2021/07/01 09:13:09;;;;;;;0.40;0.20;;;;;;;18.36;88.82;100180.09;5071622;28;20432;-54
2021/07/01 09:15:37;;;;;;;0.40;0.20;;;;;;;18.61;88.26;100176.72;5069792;28;20431;-54
2021/07/01 09:18:04;;;;;;;0.40;0.20;;;;;;;18.33;89.96;100175.78;5060701;28;20488;-54
2021/07/01 09:20:35;;;;;;;0.40;0.20;;;;;;;18.40;90.22;100173.59;5071298;28;20987;-54
2021/07/01 09:23:04;;;;;;;0.40;0.20;;;;;;;18.25;90.28;100174.53;5062519;28;20450;-53
2021/07/01 09:25:30;;;;;;;0.40;0.20;;;;;;;18.28;90.36;100179.72;5071577;28;20420;-54
2021/07/01 09:27:58;;;;;;;0.40;0.20;;;;;;;18.42;90.24;100177.03;5071454;28;20502;-54
2021/07/01 09:30:28;;;;;;;0.40;0.20;;;;;;;18.74;90.09;100179.53;5071659;28;20926;-54
2021/07/01 09:33:06;;;;;;;0.40;0.20;;;;;;;18.85;89.71;100172.50;5070208;28;20544;-54
2021/07/01 09:35:35;;;;;;;0.40;0.20;;;;;;;18.48;88.90;100167.69;5070924;28;20471;-54
2021/07/01 09:38:10;;;;;;;0.40;0.20;;;;;;;18.62;87.50;100176.63;5071858;28;20496;-54
2021/07/01 09:40:37;;;;;;;0.40;0.20;;;;;;;18.87;87.34;100172.41;5071602;28;20569;-54
2021/07/01 09:43:07;;;;;;;0.40;0.20;;;;;;;19.15;87.64;100168.78;5071724;28;20503;-53
2021/07/01 09:45:36;;;;;;;0.40;0.20;;;;;;;19.24;87.82;100170.88;5071353;28;20469;-54
2021/07/01 09:48:13;;;;;;;0.40;0.20;;;;;;;19.70;85.31;100170.50;5071469;28;20559;-54
2021/07/01 09:50:45;;;;;;;0.40;0.20;;;;;;;20.13;84.74;100171.06;5071479;28;20609;-54
2021/07/01 09:53:15;;;;;;;0.40;0.20;;;;;;;20.03;84.46;100168.19;5070968;28;20429;-54
2021/07/01 09:55:51;;;;;;;0.40;0.20;;;;;;;19.85;85.19;100165.88;5072281;28;20442;-54
2021/07/01 09:58:19;;;;;;;0.40;0.30;;;;;;;19.65;83.79;100170.81;5071713;28;20442;-54
2021/07/01 10:00:52;;;;;;;0.40;0.20;;;;;;;19.24;85.24;100179.81;5072633;28;20474;-54
2021/07/01 10:03:19;;;;;;;0.40;0.20;;;;;;;19.02;84.59;100178.63;5069990;28;20447;-54
2021/07/01 10:05:46;;;;;;;0.40;0.20;;;;;;;18.91;86.98;100185.59;5068674;28;20503;-53
2021/07/01 10:08:13;;;;;;;0.40;0.20;;;;;;;19.02;87.94;100184.00;5073928;28;20485;-54
2021/07/01 10:10:51;;;;;;;0.40;0.20;;;;;;;18.71;88.89;100182.44;5075216;28;20444;-54
2021/07/01 10:13:21;;;;;;;0.40;0.20;;;;;;;18.51;89.72;100189.06;5074983;28;20785;-54
2021/07/01 10:15:51;;;;;;;0.40;0.20;;;;;;;18.51;88.60;100184.53;5071000;28;20564;-54
2021/07/01 10:18:20;;;;;;;0.40;0.20;;;;;;;18.51;89.46;100187.25;5065400;28;20948;-54
2021/07/01 10:20:57;;;;;;;0.40;0.20;;;;;;;18.39;90.98;100185.31;5071989;28;20488;-54
2021/07/01 10:23:30;;;;;;;0.87;0.87;;;;;;;18.51;92.00;100187.25;5067254;28;20508;-53
2021/07/01 10:26:12;;;;;;;0.40;0.20;;;;;;;18.26;93.64;100190.59;5053391;28;20481;-54
2021/07/01 10:28:40;;;;;;;0.40;0.20;;;;;;;18.23;93.12;100187.22;5069968;28;20890;-54
2021/07/01 10:31:13;;;;;;;0.40;0.30;;;;;;;18.52;91.28;100188.09;5074375;28;20531;-54
2021/07/01 10:33:42;;;;;;;0.40;0.20;;;;;;;18.82;87.55;100191.56;5065583;28;20443;-54
2021/07/01 10:36:18;;;;;;;0.40;0.30;;;;;;;19.12;85.72;100183.31;5053252;28;20500;-53
2021/07/01 10:38:50;;;;;;;0.40;0.20;;;;;;;19.50;84.24;100180.78;5073579;28;20441;-54
2021/07/01 10:41:30;;;;;;;0.40;0.20;;;;;;;19.44;83.43;100188.41;5074004;28;20531;-54
2021/07/01 10:43:58;;;;;;;2.07;2.00;;;;;;;19.46;84.34;100191.84;5074274;28;20446;-54
2021/07/01 10:46:47;;;;;;;0.40;0.20;;;;;;;18.91;85.09;100188.28;5073966;28;20457;-53
2021/07/01 10:49:16;;;;;;;0.97;0.97;;;;;;;19.35;84.88;100186.34;5074008;28;20477;-54
2021/07/01 10:51:54;;;;;;;0.40;0.20;;;;;;;19.11;85.85;100197.75;5074035;28;20450;-54
2021/07/01 10:54:21;;;;;;;0.40;0.20;;;;;;;18.82;87.48;100202.34;5074192;28;20864;-54
2021/07/01 10:57:09;;;;;;;0.40;0.20;;;;;;;18.60;87.56;100204.63;5074107;28;20515;-53
2021/07/01 10:59:50;;;;;;;0.40;0.20;;;;;;;18.48;88.33;100208.94;5073941;28;20442;-54
2021/07/01 11:02:47;;;;;;;0.40;0.27;;;;;;;18.80;89.12;100204.28;5074040;28;20424;-53
2021/07/01 11:05:36;;;;;;;0.40;0.20;;;;;;;19.09;86.38;100212.28;5065821;28;20475;-54
2021/07/01 11:08:04;;;;;;;0.40;0.20;;;;;;;18.85;84.70;100199.44;5073764;28;20884;-54
2021/07/01 11:10:38;;;;;;;0.40;0.20;;;;;;;19.19;83.47;100195.44;5073811;28;20561;-54
2021/07/01 11:13:09;;;;;;;0.40;0.30;;;;;;;19.71;82.56;100200.06;5073746;28;20441;-54
2021/07/01 11:16:05;;;;;;;0.40;0.20;;;;;;;19.61;82.50;100195.41;5071774;28;20409;-54
2021/07/01 11:18:37;;;;;;;0.40;0.20;;;;;;;19.93;83.71;100195.91;5066278;28;20445;-54
2021/07/01 11:21:08;;;;;;;0.60;0.30;;;;;;;19.86;82.01;100195.44;5069906;28;20529;-54
2021/07/01 11:23:36;;;;;;;0.40;0.20;;;;;;;19.83;80.32;100192.97;5067233;28;20446;-54
2021/07/01 11:26:21;;;;;;;0.40;0.20;;;;;;;19.64;80.44;100193.34;5073686;28;20454;-54
2021/07/01 11:28:48;;;;;;;0.40;0.20;;;;;;;19.73;79.31;100194.53;5072782;28;21051;-54
2021/07/01 11:31:15;;;;;;;0.40;0.30;;;;;;;19.92;78.07;100194.19;5073154;28;20473;-54
2021/07/01 11:33:50;;;;;;;0.40;0.20;;;;;;;19.74;77.13;100189.06;5069653;28;20421;-53
2021/07/01 11:36:19;;;;;;;0.87;0.87;;;;;;;20.05;78.07;100193.22;5073105;28;20867;-54